Terminal Aerodrome Forecast
Issued by NWS Paducah, KY

Home | Current Version | Previous Version | Text Only | Print | Product List | Glossary On
Versions: 1 2 3 4 5 6 7 8 9 10 11 12 13 14
000
FTUS43 KPAH 261200 RRA
TAFPAH
TAF
KPAH 261211Z 2612/2712 VRB03KT P6SM BKN025
     FM261400 23010G15KT P6SM SCT080
     FM270000 21007KT P6SM BKN120=

USA.gov is the U.S. government's official web portal to all federal, state and local government web resources and services.